sensor_id;sensor_type;location;lat;lon;timestamp;P1;durP1;ratioP1;P2;durP2;ratioP2
49972;SDS011;65693;49.798;10.968;2023-05-24T00:02:18;5.85;;;3.83;;
49972;SDS011;65693;49.798;10.968;2023-05-24T00:04:45;6.22;;;4.15;;
49972;SDS011;65693;49.798;10.968;2023-05-24T00:07:13;5.25;;;4.03;;
49972;SDS011;65693;49.798;10.968;2023-05-24T00:09:40;6.13;;;3.70;;
49972;SDS011;65693;49.798;10.968;2023-05-24T00:12:08;6.35;;;3.90;;
49972;SDS011;65693;49.798;10.968;2023-05-24T00:14:34;6.15;;;3.58;;
49972;SDS011;65693;49.798;10.968;2023-05-24T00:17:01;8.05;;;4.10;;
49972;SDS011;65693;49.798;10.968;2023-05-24T00:19:27;5.75;;;4.00;;
49972;SDS011;65693;49.798;10.968;2023-05-24T00:21:54;5.22;;;4.05;;
49972;SDS011;65693;49.798;10.968;2023-05-24T00:24:20;5.13;;;3.90;;
49972;SDS011;65693;49.798;10.968;2023-05-24T00:26:46;5.15;;;3.78;;
49972;SDS011;65693;49.798;10.968;2023-05-24T00:29:14;5.00;;;3.38;;
49972;SDS011;65693;49.798;10.968;2023-05-24T00:31:41;5.18;;;3.85;;
49972;SDS011;65693;49.798;10.968;2023-05-24T00:34:07;6.38;;;4.18;;
49972;SDS011;65693;49.798;10.968;2023-05-24T00:36:34;5.60;;;3.78;;
49972;SDS011;65693;49.798;10.968;2023-05-24T00:39:02;6.55;;;3.83;;
49972;SDS011;65693;49.798;10.968;2023-05-24T00:41:28;7.28;;;4.18;;
49972;SDS011;65693;49.798;10.968;2023-05-24T00:43:55;5.45;;;4.15;;
49972;SDS011;65693;49.798;10.968;2023-05-24T00:46:24;5.65;;;3.70;;
49972;SDS011;65693;49.798;10.968;2023-05-24T00:48:53;6.72;;;4.00;;
49972;SDS011;65693;49.798;10.968;2023-05-24T00:51:20;5.15;;;3.92;;
49972;SDS011;65693;49.798;10.968;2023-05-24T00:53:47;5.95;;;4.03;;
49972;SDS011;65693;49.798;10.968;2023-05-24T00:56:15;5.25;;;3.67;;
49972;SDS011;65693;49.798;10.968;2023-05-24T00:58:42;4.57;;;3.70;;
49972;SDS011;65693;49.798;10.968;2023-05-24T01:01:09;5.15;;;3.45;;
49972;SDS011;65693;49.798;10.968;2023-05-24T01:03:38;5.05;;;3.75;;
49972;SDS011;65693;49.798;10.968;2023-05-24T01:06:05;5.57;;;3.67;;
49972;SDS011;65693;49.798;10.968;2023-05-24T01:11:28;5.78;;;4.57;;
49972;SDS011;65693;49.798;10.968;2023-05-24T01:14:13;5.60;;;3.60;;
49972;SDS011;65693;49.798;10.968;2023-05-24T01:16:48;5.20;;;3.50;;
49972;SDS011;65693;49.798;10.968;2023-05-24T01:19:30;5.45;;;3.67;;
49972;SDS011;65693;49.798;10.968;2023-05-24T01:22:07;5.68;;;3.70;;
49972;SDS011;65693;49.798;10.968;2023-05-24T01:24:43;5.97;;;3.75;;
49972;SDS011;65693;49.798;10.968;2023-05-24T01:27:20;4.68;;;3.38;;
49972;SDS011;65693;49.798;10.968;2023-05-24T01:29:48;6.07;;;4.00;;
49972;SDS011;65693;49.798;10.968;2023-05-24T01:32:17;6.00;;;3.72;;
49972;SDS011;65693;49.798;10.968;2023-05-24T01:34:44;3.97;;;3.08;;
49972;SDS011;65693;49.798;10.968;2023-05-24T01:37:10;5.32;;;3.80;;
49972;SDS011;65693;49.798;10.968;2023-05-24T01:39:37;5.97;;;3.72;;
49972;SDS011;65693;49.798;10.968;2023-05-24T01:42:07;6.15;;;4.10;;
49972;SDS011;65693;49.798;10.968;2023-05-24T01:44:38;5.97;;;3.83;;
49972;SDS011;65693;49.798;10.968;2023-05-24T01:47:14;6.45;;;3.88;;
49972;SDS011;65693;49.798;10.968;2023-05-24T01:49:48;5.10;;;3.72;;
49972;SDS011;65693;49.798;10.968;2023-05-24T01:52:16;5.53;;;3.75;;
49972;SDS011;65693;49.798;10.968;2023-05-24T01:54:47;5.20;;;3.72;;
49972;SDS011;65693;49.798;10.968;2023-05-24T01:57:17;6.95;;;3.88;;
49972;SDS011;65693;49.798;10.968;2023-05-24T01:59:46;4.95;;;3.80;;
49972;SDS011;65693;49.798;10.968;2023-05-24T02:02:14;5.20;;;3.58;;
49972;SDS011;65693;49.798;10.968;2023-05-24T02:04:41;5.30;;;3.78;;
49972;SDS011;65693;49.798;10.968;2023-05-24T02:07:07;6.22;;;4.20;;
49972;SDS011;65693;49.798;10.968;2023-05-24T02:09:34;5.60;;;3.60;;
49972;SDS011;65693;49.798;10.968;2023-05-24T02:12:00;6.03;;;3.67;;
49972;SDS011;65693;49.798;10.968;2023-05-24T02:14:26;5.78;;;3.65;;
49972;SDS011;65693;49.798;10.968;2023-05-24T02:16:54;6.50;;;4.25;;
49972;SDS011;65693;49.798;10.968;2023-05-24T02:19:22;5.18;;;3.33;;
49972;SDS011;65693;49.798;10.968;2023-05-24T02:21:49;6.38;;;3.67;;
49972;SDS011;65693;49.798;10.968;2023-05-24T02:24:17;4.97;;;4.10;;
49972;SDS011;65693;49.798;10.968;2023-05-24T02:26:43;5.75;;;4.10;;
49972;SDS011;65693;49.798;10.968;2023-05-24T02:29:09;5.43;;;3.85;;
49972;SDS011;65693;49.798;10.968;2023-05-24T02:31:37;5.70;;;3.70;;
49972;SDS011;65693;49.798;10.968;2023-05-24T02:34:05;5.20;;;3.75;;
49972;SDS011;65693;49.798;10.968;2023-05-24T02:36:31;4.70;;;3.40;;
49972;SDS011;65693;49.798;10.968;2023-05-24T02:39:00;5.93;;;3.78;;
49972;SDS011;65693;49.798;10.968;2023-05-24T02:41:27;5.47;;;4.03;;
49972;SDS011;65693;49.798;10.968;2023-05-24T02:43:54;5.18;;;3.60;;
49972;SDS011;65693;49.798;10.968;2023-05-24T02:46:20;6.80;;;4.05;;
49972;SDS011;65693;49.798;10.968;2023-05-24T02:48:46;5.95;;;3.67;;
49972;SDS011;65693;49.798;10.968;2023-05-24T02:51:15;4.47;;;3.35;;
49972;SDS011;65693;49.798;10.968;2023-05-24T02:53:41;6.53;;;4.32;;
49972;SDS011;65693;49.798;10.968;2023-05-24T02:56:09;5.90;;;3.80;;
49972;SDS011;65693;49.798;10.968;2023-05-24T02:58:37;7.15;;;3.85;;
49972;SDS011;65693;49.798;10.968;2023-05-24T03:01:05;5.20;;;3.50;;
49972;SDS011;65693;49.798;10.968;2023-05-24T03:03:31;4.45;;;3.58;;
49972;SDS011;65693;49.798;10.968;2023-05-24T03:05:58;4.70;;;3.75;;
49972;SDS011;65693;49.798;10.968;2023-05-24T03:08:26;5.43;;;3.50;;
49972;SDS011;65693;49.798;10.968;2023-05-24T03:10:52;5.15;;;3.70;;
49972;SDS011;65693;49.798;10.968;2023-05-24T03:13:18;5.88;;;3.58;;
49972;SDS011;65693;49.798;10.968;2023-05-24T03:15:45;5.22;;;3.75;;
49972;SDS011;65693;49.798;10.968;2023-05-24T03:18:11;5.80;;;3.30;;
49972;SDS011;65693;49.798;10.968;2023-05-24T03:20:38;5.18;;;3.50;;
49972;SDS011;65693;49.798;10.968;2023-05-24T03:23:04;6.47;;;3.40;;
49972;SDS011;65693;49.798;10.968;2023-05-24T03:25:32;5.53;;;4.20;;
49972;SDS011;65693;49.798;10.968;2023-05-24T03:27:59;5.15;;;3.78;;
49972;SDS011;65693;49.798;10.968;2023-05-24T03:30:26;5.65;;;3.95;;
49972;SDS011;65693;49.798;10.968;2023-05-24T03:32:52;5.97;;;3.95;;
49972;SDS011;65693;49.798;10.968;2023-05-24T03:35:19;5.93;;;3.50;;
49972;SDS011;65693;49.798;10.968;2023-05-24T03:37:45;7.57;;;4.35;;
49972;SDS011;65693;49.798;10.968;2023-05-24T03:40:12;6.07;;;3.78;;
49972;SDS011;65693;49.798;10.968;2023-05-24T03:42:39;5.88;;;4.07;;
49972;SDS011;65693;49.798;10.968;2023-05-24T03:45:06;5.22;;;3.88;;
49972;SDS011;65693;49.798;10.968;2023-05-24T03:47:33;6.38;;;3.97;;
49972;SDS011;65693;49.798;10.968;2023-05-24T03:50:00;6.30;;;3.63;;
49972;SDS011;65693;49.798;10.968;2023-05-24T03:52:26;4.82;;;3.60;;
49972;SDS011;65693;49.798;10.968;2023-05-24T03:54:53;5.93;;;3.78;;
49972;SDS011;65693;49.798;10.968;2023-05-24T03:57:19;6.25;;;3.95;;
49972;SDS011;65693;49.798;10.968;2023-05-24T03:59:47;6.65;;;4.10;;
49972;SDS011;65693;49.798;10.968;2023-05-24T04:02:13;4.53;;;3.45;;
49972;SDS011;65693;49.798;10.968;2023-05-24T04:04:40;8.20;;;4.10;;
49972;SDS011;65693;49.798;10.968;2023-05-24T04:07:06;5.57;;;3.70;;
49972;SDS011;65693;49.798;10.968;2023-05-24T04:09:35;5.72;;;3.63;;
49972;SDS011;65693;49.798;10.968;2023-05-24T04:12:02;6.07;;;3.50;;
49972;SDS011;65693;49.798;10.968;2023-05-24T04:14:28;6.85;;;4.22;;
49972;SDS011;65693;49.798;10.968;2023-05-24T04:16:56;6.03;;;3.95;;
49972;SDS011;65693;49.798;10.968;2023-05-24T04:19:22;6.75;;;3.95;;
49972;SDS011;65693;49.798;10.968;2023-05-24T04:21:49;6.15;;;3.80;;
49972;SDS011;65693;49.798;10.968;2023-05-24T04:24:15;6.22;;;4.20;;
49972;SDS011;65693;49.798;10.968;2023-05-24T04:26:42;6.40;;;3.88;;
49972;SDS011;65693;49.798;10.968;2023-05-24T04:29:08;4.97;;;3.70;;
49972;SDS011;65693;49.798;10.968;2023-05-24T04:31:35;5.70;;;3.78;;
49972;SDS011;65693;49.798;10.968;2023-05-24T04:34:03;6.25;;;3.92;;
49972;SDS011;65693;49.798;10.968;2023-05-24T04:36:31;5.22;;;4.00;;
49972;SDS011;65693;49.798;10.968;2023-05-24T04:38:59;5.25;;;3.40;;
49972;SDS011;65693;49.798;10.968;2023-05-24T04:41:28;5.50;;;3.80;;
49972;SDS011;65693;49.798;10.968;2023-05-24T04:43:56;5.45;;;3.95;;
49972;SDS011;65693;49.798;10.968;2023-05-24T04:46:23;5.72;;;4.00;;
49972;SDS011;65693;49.798;10.968;2023-05-24T04:48:50;6.22;;;3.78;;
49972;SDS011;65693;49.798;10.968;2023-05-24T04:51:18;6.93;;;3.92;;
49972;SDS011;65693;49.798;10.968;2023-05-24T04:53:45;4.75;;;3.35;;
49972;SDS011;65693;49.798;10.968;2023-05-24T04:56:12;6.32;;;3.65;;
49972;SDS011;65693;49.798;10.968;2023-05-24T04:58:39;5.07;;;3.50;;
49972;SDS011;65693;49.798;10.968;2023-05-24T05:01:05;5.45;;;3.50;;
49972;SDS011;65693;49.798;10.968;2023-05-24T05:03:32;7.97;;;3.72;;
49972;SDS011;65693;49.798;10.968;2023-05-24T05:05:58;6.03;;;3.45;;
49972;SDS011;65693;49.798;10.968;2023-05-24T05:08:29;5.15;;;3.60;;
49972;SDS011;65693;49.798;10.968;2023-05-24T05:10:57;6.43;;;3.63;;
49972;SDS011;65693;49.798;10.968;2023-05-24T05:13:23;6.28;;;3.53;;
49972;SDS011;65693;49.798;10.968;2023-05-24T05:15:50;6.10;;;3.63;;
49972;SDS011;65693;49.798;10.968;2023-05-24T05:18:16;8.52;;;3.50;;
49972;SDS011;65693;49.798;10.968;2023-05-24T05:20:43;6.85;;;3.45;;
49972;SDS011;65693;49.798;10.968;2023-05-24T05:23:09;6.93;;;3.85;;
49972;SDS011;65693;49.798;10.968;2023-05-24T05:25:37;6.53;;;3.00;;
49972;SDS011;65693;49.798;10.968;2023-05-24T05:28:03;9.48;;;3.80;;
49972;SDS011;65693;49.798;10.968;2023-05-24T05:30:30;5.15;;;3.08;;
49972;SDS011;65693;49.798;10.968;2023-05-24T05:32:56;5.97;;;3.30;;
49972;SDS011;65693;49.798;10.968;2023-05-24T05:35:23;7.15;;;3.90;;
49972;SDS011;65693;49.798;10.968;2023-05-24T05:37:49;5.72;;;3.40;;
49972;SDS011;65693;49.798;10.968;2023-05-24T05:40:16;5.80;;;3.60;;
49972;SDS011;65693;49.798;10.968;2023-05-24T05:42:43;6.47;;;3.40;;
49972;SDS011;65693;49.798;10.968;2023-05-24T05:45:11;6.90;;;3.40;;
49972;SDS011;65693;49.798;10.968;2023-05-24T05:47:37;6.43;;;3.65;;
49972;SDS011;65693;49.798;10.968;2023-05-24T05:50:05;5.22;;;3.42;;
49972;SDS011;65693;49.798;10.968;2023-05-24T05:52:32;6.00;;;3.33;;
49972;SDS011;65693;49.798;10.968;2023-05-24T05:54:58;6.90;;;3.45;;
49972;SDS011;65693;49.798;10.968;2023-05-24T05:57:25;7.40;;;3.67;;
49972;SDS011;65693;49.798;10.968;2023-05-24T05:59:53;6.20;;;3.55;;
49972;SDS011;65693;49.798;10.968;2023-05-24T06:02:19;7.03;;;3.75;;
49972;SDS011;65693;49.798;10.968;2023-05-24T06:04:46;8.32;;;3.47;;
49972;SDS011;65693;49.798;10.968;2023-05-24T06:07:13;6.85;;;3.33;;
49972;SDS011;65693;49.798;10.968;2023-05-24T06:09:39;5.45;;;3.50;;
49972;SDS011;65693;49.798;10.968;2023-05-24T06:12:06;5.57;;;3.10;;
49972;SDS011;65693;49.798;10.968;2023-05-24T06:14:32;5.05;;;3.08;;
49972;SDS011;65693;49.798;10.968;2023-05-24T06:17:03;4.85;;;2.92;;
49972;SDS011;65693;49.798;10.968;2023-05-24T06:19:30;6.63;;;3.83;;
49972;SDS011;65693;49.798;10.968;2023-05-24T06:21:56;7.47;;;3.35;;
49972;SDS011;65693;49.798;10.968;2023-05-24T06:24:23;6.50;;;3.42;;
49972;SDS011;65693;49.798;10.968;2023-05-24T06:26:50;6.20;;;3.45;;
49972;SDS011;65693;49.798;10.968;2023-05-24T06:29:17;6.07;;;3.33;;
49972;SDS011;65693;49.798;10.968;2023-05-24T06:31:45;6.30;;;3.40;;
49972;SDS011;65693;49.798;10.968;2023-05-24T06:34:13;5.13;;;3.25;;
49972;SDS011;65693;49.798;10.968;2023-05-24T06:36:41;5.53;;;3.33;;
49972;SDS011;65693;49.798;10.968;2023-05-24T06:39:08;5.82;;;3.58;;
49972;SDS011;65693;49.798;10.968;2023-05-24T06:41:34;5.40;;;2.97;;
49972;SDS011;65693;49.798;10.968;2023-05-24T06:44:01;6.00;;;3.38;;
49972;SDS011;65693;49.798;10.968;2023-05-24T06:46:27;5.93;;;3.03;;
49972;SDS011;65693;49.798;10.968;2023-05-24T06:48:54;6.93;;;3.42;;
49972;SDS011;65693;49.798;10.968;2023-05-24T06:51:22;5.70;;;3.25;;
49972;SDS011;65693;49.798;10.968;2023-05-24T06:53:48;5.00;;;3.10;;
49972;SDS011;65693;49.798;10.968;2023-05-24T06:56:15;6.07;;;3.72;;
49972;SDS011;65693;49.798;10.968;2023-05-24T06:58:41;8.38;;;3.47;;
49972;SDS011;65693;49.798;10.968;2023-05-24T07:01:08;5.82;;;3.38;;
49972;SDS011;65693;49.798;10.968;2023-05-24T07:03:34;5.13;;;3.42;;
49972;SDS011;65693;49.798;10.968;2023-05-24T07:06:01;5.50;;;3.42;;
49972;SDS011;65693;49.798;10.968;2023-05-24T07:08:29;5.30;;;3.45;;
49972;SDS011;65693;49.798;10.968;2023-05-24T07:10:55;6.68;;;3.38;;
49972;SDS011;65693;49.798;10.968;2023-05-24T07:13:22;5.35;;;3.78;;
49972;SDS011;65693;49.798;10.968;2023-05-24T07:15:48;6.05;;;3.28;;
49972;SDS011;65693;49.798;10.968;2023-05-24T07:18:15;5.57;;;3.08;;
49972;SDS011;65693;49.798;10.968;2023-05-24T07:20:41;5.28;;;3.03;;
49972;SDS011;65693;49.798;10.968;2023-05-24T07:23:08;5.15;;;3.35;;
49972;SDS011;65693;49.798;10.968;2023-05-24T07:25:36;7.63;;;3.35;;
49972;SDS011;65693;49.798;10.968;2023-05-24T07:28:02;5.70;;;3.20;;
49972;SDS011;65693;49.798;10.968;2023-05-24T07:30:29;5.22;;;3.08;;
49972;SDS011;65693;49.798;10.968;2023-05-24T07:32:56;5.80;;;3.88;;
49972;SDS011;65693;49.798;10.968;2023-05-24T07:35:22;5.65;;;3.60;;
49972;SDS011;65693;49.798;10.968;2023-05-24T07:37:48;7.03;;;3.30;;
49972;SDS011;65693;49.798;10.968;2023-05-24T07:40:15;5.18;;;3.25;;
49972;SDS011;65693;49.798;10.968;2023-05-24T07:42:43;5.05;;;3.10;;
49972;SDS011;65693;49.798;10.968;2023-05-24T07:45:11;5.95;;;3.30;;
49972;SDS011;65693;49.798;10.968;2023-05-24T07:47:38;5.13;;;3.00;;
49972;SDS011;65693;49.798;10.968;2023-05-24T07:50:04;5.78;;;3.28;;
49972;SDS011;65693;49.798;10.968;2023-05-24T07:52:31;5.53;;;3.05;;
49972;SDS011;65693;49.798;10.968;2023-05-24T07:54:59;6.45;;;3.53;;
49972;SDS011;65693;49.798;10.968;2023-05-24T07:57:25;4.72;;;3.10;;
49972;SDS011;65693;49.798;10.968;2023-05-24T07:59:53;4.47;;;2.85;;
49972;SDS011;65693;49.798;10.968;2023-05-24T08:02:20;5.22;;;3.10;;
49972;SDS011;65693;49.798;10.968;2023-05-24T08:04:46;4.55;;;3.00;;
49972;SDS011;65693;49.798;10.968;2023-05-24T08:07:13;5.60;;;3.08;;
49972;SDS011;65693;49.798;10.968;2023-05-24T08:09:40;5.32;;;3.10;;
49972;SDS011;65693;49.798;10.968;2023-05-24T08:12:06;5.38;;;2.95;;
49972;SDS011;65693;49.798;10.968;2023-05-24T08:14:33;5.65;;;3.40;;
49972;SDS011;65693;49.798;10.968;2023-05-24T08:17:01;7.03;;;3.25;;
49972;SDS011;65693;49.798;10.968;2023-05-24T08:19:27;7.53;;;3.78;;
49972;SDS011;65693;49.798;10.968;2023-05-24T08:21:59;4.88;;;3.10;;
49972;SDS011;65693;49.798;10.968;2023-05-24T08:24:28;5.65;;;3.28;;
49972;SDS011;65693;49.798;10.968;2023-05-24T08:26:55;4.97;;;2.83;;
49972;SDS011;65693;49.798;10.968;2023-05-24T08:29:21;5.53;;;3.03;;
49972;SDS011;65693;49.798;10.968;2023-05-24T08:31:48;5.38;;;3.10;;
49972;SDS011;65693;49.798;10.968;2023-05-24T08:34:16;5.72;;;3.10;;
49972;SDS011;65693;49.798;10.968;2023-05-24T08:36:42;6.40;;;3.40;;
49972;SDS011;65693;49.798;10.968;2023-05-24T08:39:09;5.97;;;2.90;;
49972;SDS011;65693;49.798;10.968;2023-05-24T08:41:36;6.07;;;2.88;;
49972;SDS011;65693;49.798;10.968;2023-05-24T08:44:03;6.10;;;2.92;;
49972;SDS011;65693;49.798;10.968;2023-05-24T08:46:31;4.75;;;2.97;;
49972;SDS011;65693;49.798;10.968;2023-05-24T08:49:00;5.35;;;2.97;;
49972;SDS011;65693;49.798;10.968;2023-05-24T08:51:29;4.72;;;3.10;;
49972;SDS011;65693;49.798;10.968;2023-05-24T08:53:56;7.20;;;3.25;;
49972;SDS011;65693;49.798;10.968;2023-05-24T08:56:23;4.85;;;2.90;;
49972;SDS011;65693;49.798;10.968;2023-05-24T08:58:50;5.80;;;3.45;;
49972;SDS011;65693;49.798;10.968;2023-05-24T09:01:19;6.25;;;2.80;;
49972;SDS011;65693;49.798;10.968;2023-05-24T09:03:46;7.45;;;3.15;;
49972;SDS011;65693;49.798;10.968;2023-05-24T09:06:15;6.03;;;3.08;;
49972;SDS011;65693;49.798;10.968;2023-05-24T09:08:44;6.20;;;3.13;;
49972;SDS011;65693;49.798;10.968;2023-05-24T09:11:11;5.63;;;3.22;;
49972;SDS011;65693;49.798;10.968;2023-05-24T09:13:41;4.85;;;2.90;;
49972;SDS011;65693;49.798;10.968;2023-05-24T09:16:09;4.00;;;2.63;;
49972;SDS011;65693;49.798;10.968;2023-05-24T09:18:36;6.13;;;2.95;;
49972;SDS011;65693;49.798;10.968;2023-05-24T09:21:02;4.70;;;2.80;;
49972;SDS011;65693;49.798;10.968;2023-05-24T09:23:28;4.95;;;3.00;;
49972;SDS011;65693;49.798;10.968;2023-05-24T09:25:57;5.68;;;3.08;;
49972;SDS011;65693;49.798;10.968;2023-05-24T09:28:31;4.43;;;3.10;;
49972;SDS011;65693;49.798;10.968;2023-05-24T09:30:58;4.05;;;2.88;;
49972;SDS011;65693;49.798;10.968;2023-05-24T09:33:29;6.55;;;2.92;;
49972;SDS011;65693;49.798;10.968;2023-05-24T09:35:57;6.05;;;3.55;;
49972;SDS011;65693;49.798;10.968;2023-05-24T09:38:24;4.55;;;3.03;;
49972;SDS011;65693;49.798;10.968;2023-05-24T09:41:02;5.32;;;3.25;;
49972;SDS011;65693;49.798;10.968;2023-05-24T09:43:30;6.15;;;3.00;;
49972;SDS011;65693;49.798;10.968;2023-05-24T09:45:58;7.10;;;3.20;;
49972;SDS011;65693;49.798;10.968;2023-05-24T09:48:27;5.70;;;3.30;;
49972;SDS011;65693;49.798;10.968;2023-05-24T09:50:58;7.60;;;2.90;;
49972;SDS011;65693;49.798;10.968;2023-05-24T09:53:29;5.82;;;3.05;;
49972;SDS011;65693;49.798;10.968;2023-05-24T09:55:56;6.03;;;3.10;;
49972;SDS011;65693;49.798;10.968;2023-05-24T09:58:24;5.05;;;2.72;;
49972;SDS011;65693;49.798;10.968;2023-05-24T10:00:59;5.10;;;3.10;;
49972;SDS011;65693;49.798;10.968;2023-05-24T10:03:29;5.15;;;2.80;;
49972;SDS011;65693;49.798;10.968;2023-05-24T10:05:55;4.90;;;2.92;;
49972;SDS011;65693;49.798;10.968;2023-05-24T10:08:23;4.35;;;2.63;;
49972;SDS011;65693;49.798;10.968;2023-05-24T10:10:50;5.05;;;2.92;;
49972;SDS011;65693;49.798;10.968;2023-05-24T10:13:17;5.07;;;3.25;;
49972;SDS011;65693;49.798;10.968;2023-05-24T10:15:45;5.03;;;2.90;;
49972;SDS011;65693;49.798;10.968;2023-05-24T10:18:12;4.85;;;3.08;;
49972;SDS011;65693;49.798;10.968;2023-05-24T10:20:38;4.60;;;3.20;;
49972;SDS011;65693;49.798;10.968;2023-05-24T10:23:06;4.72;;;3.25;;
49972;SDS011;65693;49.798;10.968;2023-05-24T10:25:34;4.95;;;2.92;;
49972;SDS011;65693;49.798;10.968;2023-05-24T10:28:07;5.63;;;3.25;;
49972;SDS011;65693;49.798;10.968;2023-05-24T10:30:40;5.47;;;3.17;;
49972;SDS011;65693;49.798;10.968;2023-05-24T10:33:12;4.57;;;2.80;;
49972;SDS011;65693;49.798;10.968;2023-05-24T10:35:40;5.03;;;3.05;;
49972;SDS011;65693;49.798;10.968;2023-05-24T10:38:07;4.57;;;3.15;;
49972;SDS011;65693;49.798;10.968;2023-05-24T10:40:35;6.45;;;3.00;;
49972;SDS011;65693;49.798;10.968;2023-05-24T10:43:06;4.90;;;2.90;;
49972;SDS011;65693;49.798;10.968;2023-05-24T10:45:35;5.22;;;3.25;;
49972;SDS011;65693;49.798;10.968;2023-05-24T10:53:57;4.43;;;2.65;;
49972;SDS011;65693;49.798;10.968;2023-05-24T10:56:38;4.75;;;2.70;;
49972;SDS011;65693;49.798;10.968;2023-05-24T10:59:05;5.75;;;3.13;;
49972;SDS011;65693;49.798;10.968;2023-05-24T11:01:32;5.20;;;2.97;;
49972;SDS011;65693;49.798;10.968;2023-05-24T11:04:07;4.90;;;2.72;;
49972;SDS011;65693;49.798;10.968;2023-05-24T11:06:44;6.85;;;3.00;;
49972;SDS011;65693;49.798;10.968;2023-05-24T11:09:11;4.63;;;2.90;;
49972;SDS011;65693;49.798;10.968;2023-05-24T11:11:39;5.82;;;3.10;;
49972;SDS011;65693;49.798;10.968;2023-05-24T11:14:10;5.40;;;3.10;;
49972;SDS011;65693;49.798;10.968;2023-05-24T11:16:37;5.97;;;2.97;;
49972;SDS011;65693;49.798;10.968;2023-05-24T11:19:12;4.40;;;2.97;;
49972;SDS011;65693;49.798;10.968;2023-05-24T11:21:42;5.53;;;3.20;;
49972;SDS011;65693;49.798;10.968;2023-05-24T11:24:10;4.82;;;3.03;;
49972;SDS011;65693;49.798;10.968;2023-05-24T11:26:36;4.20;;;2.65;;
49972;SDS011;65693;49.798;10.968;2023-05-24T11:29:03;4.57;;;3.00;;
49972;SDS011;65693;49.798;10.968;2023-05-24T11:31:30;5.18;;;2.78;;
49972;SDS011;65693;49.798;10.968;2023-05-24T11:33:56;4.78;;;2.92;;
49972;SDS011;65693;49.798;10.968;2023-05-24T11:36:26;5.40;;;3.15;;
49972;SDS011;65693;49.798;10.968;2023-05-24T11:38:52;5.90;;;3.00;;
49972;SDS011;65693;49.798;10.968;2023-05-24T11:41:21;7.53;;;3.08;;
49972;SDS011;65693;49.798;10.968;2023-05-24T11:43:47;6.28;;;3.17;;
49972;SDS011;65693;49.798;10.968;2023-05-24T11:46:14;5.13;;;3.10;;
49972;SDS011;65693;49.798;10.968;2023-05-24T11:48:41;4.35;;;2.95;;
49972;SDS011;65693;49.798;10.968;2023-05-24T11:51:07;4.32;;;3.13;;
49972;SDS011;65693;49.798;10.968;2023-05-24T11:53:35;4.50;;;2.83;;
49972;SDS011;65693;49.798;10.968;2023-05-24T11:56:02;4.10;;;2.80;;
49972;SDS011;65693;49.798;10.968;2023-05-24T11:58:31;5.07;;;2.97;;
49972;SDS011;65693;49.798;10.968;2023-05-24T12:01:21;4.63;;;3.10;;
49972;SDS011;65693;49.798;10.968;2023-05-24T12:03:49;4.90;;;3.15;;
49972;SDS011;65693;49.798;10.968;2023-05-24T12:06:16;5.13;;;2.97;;
49972;SDS011;65693;49.798;10.968;2023-05-24T12:08:44;6.32;;;3.00;;
49972;SDS011;65693;49.798;10.968;2023-05-24T12:11:10;3.83;;;2.83;;
49972;SDS011;65693;49.798;10.968;2023-05-24T12:13:38;4.57;;;3.17;;
49972;SDS011;65693;49.798;10.968;2023-05-24T12:16:05;4.72;;;3.10;;
49972;SDS011;65693;49.798;10.968;2023-05-24T12:18:32;4.55;;;3.03;;
49972;SDS011;65693;49.798;10.968;2023-05-24T12:20:58;4.22;;;2.78;;
49972;SDS011;65693;49.798;10.968;2023-05-24T12:23:25;6.70;;;3.47;;
49972;SDS011;65693;49.798;10.968;2023-05-24T12:26:00;4.60;;;3.10;;
49972;SDS011;65693;49.798;10.968;2023-05-24T12:28:31;4.85;;;3.30;;
49972;SDS011;65693;49.798;10.968;2023-05-24T12:30:59;5.53;;;2.80;;
49972;SDS011;65693;49.798;10.968;2023-05-24T12:33:26;4.72;;;2.72;;
49972;SDS011;65693;49.798;10.968;2023-05-24T12:35:53;4.63;;;2.97;;
49972;SDS011;65693;49.798;10.968;2023-05-24T12:38:20;3.60;;;2.92;;
49972;SDS011;65693;49.798;10.968;2023-05-24T12:40:49;4.40;;;2.75;;
49972;SDS011;65693;49.798;10.968;2023-05-24T12:43:18;5.03;;;3.05;;
49972;SDS011;65693;49.798;10.968;2023-05-24T12:45:45;5.35;;;2.80;;
49972;SDS011;65693;49.798;10.968;2023-05-24T12:48:12;4.53;;;2.88;;
49972;SDS011;65693;49.798;10.968;2023-05-24T12:50:38;4.68;;;2.92;;
49972;SDS011;65693;49.798;10.968;2023-05-24T12:53:05;5.75;;;3.22;;
49972;SDS011;65693;49.798;10.968;2023-05-24T12:55:31;6.40;;;3.35;;
49972;SDS011;65693;49.798;10.968;2023-05-24T12:57:58;7.28;;;3.30;;
49972;SDS011;65693;49.798;10.968;2023-05-24T13:00:28;4.90;;;2.80;;
49972;SDS011;65693;49.798;10.968;2023-05-24T13:02:55;5.88;;;2.97;;
49972;SDS011;65693;49.798;10.968;2023-05-24T13:05:22;8.13;;;3.20;;
49972;SDS011;65693;49.798;10.968;2023-05-24T13:07:50;20.00;;;3.97;;
49972;SDS011;65693;49.798;10.968;2023-05-24T13:10:17;14.93;;;3.70;;
49972;SDS011;65693;49.798;10.968;2023-05-24T13:12:44;11.43;;;3.58;;
49972;SDS011;65693;49.798;10.968;2023-05-24T13:15:10;8.98;;;3.17;;
49972;SDS011;65693;49.798;10.968;2023-05-24T13:17:39;7.63;;;2.85;;
49972;SDS011;65693;49.798;10.968;2023-05-24T13:20:06;11.90;;;3.53;;
49972;SDS011;65693;49.798;10.968;2023-05-24T13:22:35;15.07;;;3.58;;
49972;SDS011;65693;49.798;10.968;2023-05-24T13:25:02;9.65;;;2.80;;
49972;SDS011;65693;49.798;10.968;2023-05-24T13:27:29;9.90;;;3.35;;
49972;SDS011;65693;49.798;10.968;2023-05-24T13:29:55;7.07;;;3.47;;
49972;SDS011;65693;49.798;10.968;2023-05-24T13:32:22;8.55;;;3.00;;
49972;SDS011;65693;49.798;10.968;2023-05-24T13:34:50;9.35;;;3.60;;
49972;SDS011;65693;49.798;10.968;2023-05-24T13:37:16;6.55;;;2.92;;
49972;SDS011;65693;49.798;10.968;2023-05-24T13:39:43;8.77;;;3.45;;
49972;SDS011;65693;49.798;10.968;2023-05-24T13:42:10;6.30;;;2.97;;
49972;SDS011;65693;49.798;10.968;2023-05-24T13:44:36;7.35;;;3.25;;
49972;SDS011;65693;49.798;10.968;2023-05-24T13:47:03;8.48;;;3.50;;
49972;SDS011;65693;49.798;10.968;2023-05-24T13:49:29;8.90;;;3.15;;
49972;SDS011;65693;49.798;10.968;2023-05-24T13:51:57;10.07;;;3.83;;
49972;SDS011;65693;49.798;10.968;2023-05-24T13:54:23;5.57;;;2.88;;
49972;SDS011;65693;49.798;10.968;2023-05-24T13:56:50;6.28;;;2.88;;
49972;SDS011;65693;49.798;10.968;2023-05-24T13:59:16;8.32;;;3.53;;
49972;SDS011;65693;49.798;10.968;2023-05-24T14:01:43;5.88;;;3.47;;
49972;SDS011;65693;49.798;10.968;2023-05-24T14:04:10;7.70;;;3.13;;
49972;SDS011;65693;49.798;10.968;2023-05-24T14:06:36;5.88;;;2.97;;
49972;SDS011;65693;49.798;10.968;2023-05-24T14:09:04;5.55;;;3.10;;
49972;SDS011;65693;49.798;10.968;2023-05-24T14:11:32;8.55;;;3.40;;
49972;SDS011;65693;49.798;10.968;2023-05-24T14:13:58;5.38;;;3.00;;
49972;SDS011;65693;49.798;10.968;2023-05-24T14:16:26;6.90;;;2.70;;
49972;SDS011;65693;49.798;10.968;2023-05-24T14:18:52;6.47;;;3.15;;
49972;SDS011;65693;49.798;10.968;2023-05-24T14:21:19;5.70;;;3.22;;
49972;SDS011;65693;49.798;10.968;2023-05-24T14:23:47;5.03;;;2.97;;
49972;SDS011;65693;49.798;10.968;2023-05-24T14:26:15;7.70;;;2.83;;
49972;SDS011;65693;49.798;10.968;2023-05-24T14:28:42;4.65;;;3.10;;
49972;SDS011;65693;49.798;10.968;2023-05-24T14:31:08;8.40;;;3.40;;
49972;SDS011;65693;49.798;10.968;2023-05-24T14:33:35;8.88;;;3.50;;
49972;SDS011;65693;49.798;10.968;2023-05-24T14:36:01;4.65;;;3.03;;
49972;SDS011;65693;49.798;10.968;2023-05-24T14:38:28;6.18;;;3.03;;
49972;SDS011;65693;49.798;10.968;2023-05-24T14:40:55;5.75;;;3.05;;
49972;SDS011;65693;49.798;10.968;2023-05-24T14:43:24;6.60;;;3.10;;
49972;SDS011;65693;49.798;10.968;2023-05-24T14:45:51;5.22;;;3.03;;